Time;durP1;ratioP1;P1;durP2;ratioP2;P2;SDS_P1;SDS_P2;PMS_P1;PMS_P2;Temp;Humidity;BMP_temperature;BMP_pressure;BME280_temperature;BME280_humidity;BME280_pressure;Samples;Min_cycle;Max_cycle;Signal;HPM_P1;HPM_P2
2022/09/03 00:00:04;;;;;;;4.87;2.80;;;;;;;21.17;46.53;97054.69;5035738;28;20528;-69
2022/09/03 00:02:32;;;;;;;3.47;2.30;;;;;;;21.17;47.29;97052.03;5045686;28;20803;-70
2022/09/03 00:05:18;;;;;;;2.33;2.13;;;;;;;21.22;47.02;97051.34;5053495;28;20469;-71
2022/09/03 00:07:59;;;;;;;5.40;2.70;;;;;;;21.22;46.82;97052.16;5040185;28;20417;-71
2022/09/03 00:10:36;;;;;;;4.20;2.27;;;;;;;21.23;47.07;97048.44;5053152;28;20951;-70
2022/09/03 00:13:03;;;;;;;3.50;1.90;;;;;;;21.30;47.23;97053.69;5052814;28;20820;-69
2022/09/03 00:15:31;;;;;;;2.50;2.13;;;;;;;21.30;46.95;97038.50;5052231;28;20449;-70
2022/09/03 00:18:01;;;;;;;2.20;2.00;;;;;;;21.33;47.20;97046.06;5051610;28;20980;-71
2022/09/03 00:20:51;;;;;;;4.43;2.60;;;;;;;21.35;47.24;97045.84;5051403;28;20483;-71
2022/09/03 00:23:25;;;;;;;4.07;2.57;;;;;;;21.39;47.37;97036.34;5045896;28;20511;-69
2022/09/03 00:26:00;;;;;;;3.67;2.20;;;;;;;21.43;46.95;97044.69;5052271;28;20522;-70
2022/09/03 00:28:29;;;;;;;4.23;3.17;;;;;;;21.45;46.99;97039.97;5052652;28;20452;-70
2022/09/03 00:31:29;;;;;;;8.40;3.07;;;;;;;21.46;47.17;97038.94;5051719;28;20495;-71
2022/09/03 00:33:58;;;;;;;4.67;3.30;;;;;;;21.38;47.29;97037.38;5049307;28;20795;-71
2022/09/03 00:36:32;;;;;;;3.87;3.27;;;;;;;21.37;47.35;97043.75;5051591;28;21463;-71
2022/09/03 00:38:58;;;;;;;3.83;2.70;;;;;;;21.35;47.72;97039.69;5053229;28;20943;-71
2022/09/03 00:41:42;;;;;;;2.57;2.23;;;;;;;21.36;47.45;97028.00;5052758;28;20423;-70
2022/09/03 00:44:10;;;;;;;2.57;2.37;;;;;;;21.39;47.51;97031.03;5047108;28;20329;-70
2022/09/03 00:46:44;;;;;;;2.80;2.30;;;;;;;21.41;47.39;97039.59;5047041;28;20447;-71
2022/09/03 00:49:44;;;;;;;3.57;2.20;;;;;;;21.38;47.36;97039.25;5048874;28;20438;-69
2022/09/03 00:52:21;;;;;;;4.93;1.90;;;;;;;21.43;47.70;97040.19;5039432;28;20442;-69
2022/09/03 00:55:02;;;;;;;5.33;2.57;;;;;;;21.44;47.17;97033.84;5049750;28;20909;-70
2022/09/03 00:58:19;;;;;;;2.53;1.73;;;;;;;21.41;47.05;97038.81;5050798;28;20468;-70
2022/09/03 01:00:45;;;;;;;4.43;2.00;;;;;;;21.24;46.43;97042.09;5043553;28;21009;-70
2022/09/03 01:03:18;;;;;;;1.97;1.83;;;;;;;21.28;46.06;97040.63;5044278;28;20424;-69
2022/09/03 01:06:02;;;;;;;5.27;1.87;;;;;;;21.32;45.99;97036.44;5051163;28;20211;-70
2022/09/03 01:08:51;;;;;;;2.20;1.77;;;;;;;21.35;44.83;97040.53;5051553;28;20422;-70
2022/09/03 01:11:40;;;;;;;3.73;1.83;;;;;;;21.44;44.59;97033.84;5052508;28;20414;-69
2022/09/03 01:14:26;;;;;;;10.57;8.77;;;;;;;21.48;45.71;97040.31;5047926;28;20433;-69
2022/09/03 01:16:54;;;;;;;19.60;15.30;;;;;;;21.54;45.53;97041.28;5051250;28;20872;-69
2022/09/03 01:19:37;;;;;;;11.10;6.50;;;;;;;21.58;45.58;97037.13;5046094;28;20451;-68
2022/09/03 01:22:04;;;;;;;5.03;3.77;;;;;;;21.60;45.33;97051.06;5052184;28;20935;-71
2022/09/03 01:24:57;;;;;;;4.97;4.30;;;;;;;21.54;45.15;97043.97;5044205;28;20453;-69
2022/09/03 01:27:42;;;;;;;11.23;5.70;;;;;;;21.56;45.82;97033.84;5051307;28;20780;-71
2022/09/03 01:30:16;;;;;;;17.23;11.83;;;;;;;21.57;46.78;97038.16;5046243;28;20507;-69
2022/09/03 01:32:47;;;;;;;10.80;9.37;;;;;;;21.61;46.57;97038.56;5050660;28;20485;-70
2022/09/03 01:35:26;;;;;;;8.10;6.90;;;;;;;21.63;46.24;97037.28;5051544;28;20599;-70
2022/09/03 01:37:57;;;;;;;8.30;7.50;;;;;;;21.66;46.00;97032.53;5050261;28;20444;-70
2022/09/03 01:40:50;;;;;;;6.10;4.80;;;;;;;21.63;45.95;97045.28;5052253;28;20495;-69
2022/09/03 01:43:43;;;;;;;8.70;7.80;;;;;;;21.61;46.27;97042.03;5050038;28;20444;-69
2022/09/03 01:46:18;;;;;;;6.30;4.93;;;;;;;21.59;45.51;97049.44;5005408;28;20446;-70
2022/09/03 01:48:48;;;;;;;5.87;3.90;;;;;;;21.58;44.66;97045.13;5017310;28;20904;-71
2022/09/03 01:51:21;;;;;;;9.17;6.97;;;;;;;21.63;44.69;97039.94;5050319;28;20420;-70
2022/09/03 01:54:11;;;;;;;8.53;4.10;;;;;;;21.58;45.47;97039.78;5045787;28;20421;-70
2022/09/03 01:56:36;;;;;;;5.20;4.70;;;;;;;21.57;45.96;97048.00;5046078;28;20405;-70
2022/09/03 01:59:14;;;;;;;4.93;4.27;;;;;;;21.56;45.67;97043.72;5051754;28;20460;-70
2022/09/03 02:01:48;;;;;;;4.00;2.67;;;;;;;21.49;45.91;97046.47;5050076;28;20258;-70
2022/09/03 02:04:22;;;;;;;5.00;3.83;;;;;;;21.44;46.46;97044.50;5049581;28;20569;-69
2022/09/03 02:06:49;;;;;;;5.33;4.80;;;;;;;21.44;46.49;97044.50;5044870;28;20426;-70
2022/09/03 02:09:16;;;;;;;7.27;4.90;;;;;;;21.46;46.29;97041.59;5051312;28;20829;-70
2022/09/03 02:11:42;;;;;;;5.93;5.33;;;;;;;21.48;46.38;97050.19;5051293;28;20475;-72
2022/09/03 02:14:08;;;;;;;5.70;4.07;;;;;;;21.50;45.54;97048.09;5051046;28;20436;-70
2022/09/03 02:16:34;;;;;;;4.27;3.93;;;;;;;21.49;45.51;97051.81;5050298;28;20421;-71
2022/09/03 02:19:06;;;;;;;2.80;2.57;;;;;;;21.46;45.92;97052.25;5051183;28;20704;-70
2022/09/03 02:21:34;;;;;;;3.30;2.43;;;;;;;21.43;46.51;97058.84;5036777;28;20737;-69
2022/09/03 02:23:59;;;;;;;6.20;3.20;;;;;;;21.42;47.03;97059.09;5050316;28;20422;-70
2022/09/03 02:26:25;;;;;;;4.73;3.80;;;;;;;21.38;47.17;97053.38;5053067;28;20432;-71
2022/09/03 02:28:52;;;;;;;5.03;4.33;;;;;;;21.37;47.05;97053.63;5051323;28;20187;-69
2022/09/03 02:31:18;;;;;;;5.40;4.50;;;;;;;21.38;47.09;97055.25;5049587;28;20191;-70
2022/09/03 02:33:45;;;;;;;4.50;4.10;;;;;;;21.41;46.75;97055.59;5050766;28;20492;-71
2022/09/03 02:36:13;;;;;;;7.87;3.00;;;;;;;21.45;46.40;97051.44;5049073;28;20209;-70
2022/09/03 02:38:41;;;;;;;3.97;3.33;;;;;;;21.48;46.16;97052.84;5049157;28;20917;-69
2022/09/03 02:41:07;;;;;;;3.50;2.90;;;;;;;21.41;46.96;97049.47;5050653;28;20534;-70
2022/09/03 02:43:41;;;;;;;4.60;3.00;;;;;;;21.32;47.33;97041.78;5050809;28;20501;-70
2022/09/03 02:46:09;;;;;;;4.57;2.33;;;;;;;21.28;47.73;97042.44;5055616;28;20577;-69
2022/09/03 02:48:34;;;;;;;5.00;4.20;;;;;;;21.28;47.58;97043.28;5048665;28;20455;-72
2022/09/03 02:51:00;;;;;;;7.37;2.63;;;;;;;21.23;48.14;97032.47;5050805;28;20571;-69
2022/09/03 02:53:27;;;;;;;3.10;2.60;;;;;;;21.13;48.95;97032.19;5045430;28;20194;-69
2022/09/03 02:55:58;;;;;;;3.03;2.70;;;;;;;21.05;49.36;97040.47;5050908;28;20669;-70
2022/09/03 02:58:23;;;;;;;4.10;3.63;;;;;;;20.97;49.17;97045.06;5049833;28;20754;-69
2022/09/03 03:00:48;;;;;;;7.80;3.90;;;;;;;20.92;49.28;97050.25;5050444;28;20452;-70
2022/09/03 03:03:14;;;;;;;4.13;2.70;;;;;;;20.88;48.74;97054.41;5052108;28;20269;-69
2022/09/03 03:05:43;;;;;;;3.20;2.80;;;;;;;20.82;48.92;97055.28;5050206;28;20299;-70
2022/09/03 03:08:11;;;;;;;4.40;3.07;;;;;;;20.80;48.93;97047.53;5049587;28;20653;-70
2022/09/03 03:10:37;;;;;;;4.27;2.83;;;;;;;20.81;49.28;97045.66;5050652;28;20453;-70
2022/09/03 03:13:02;;;;;;;4.17;3.13;;;;;;;20.79;49.26;97053.88;5050588;28;20421;-70
2022/09/03 03:15:27;;;;;;;4.07;3.10;;;;;;;20.74;49.20;97055.56;5053875;28;20182;-70
2022/09/03 03:17:56;;;;;;;7.10;3.17;;;;;;;20.76;49.50;97053.53;5054073;28;20237;-68
2022/09/03 03:20:22;;;;;;;3.60;2.80;;;;;;;20.77;49.27;97052.50;5061982;28;20214;-70
2022/09/03 03:22:47;;;;;;;2.90;2.30;;;;;;;20.74;49.56;97058.22;5054499;28;20449;-70
2022/09/03 03:25:13;;;;;;;4.40;2.83;;;;;;;20.68;49.41;97054.59;5054474;28;20217;-69
2022/09/03 03:27:42;;;;;;;2.80;2.30;;;;;;;20.67;49.94;97056.44;5053651;28;20194;-70
2022/09/03 03:30:09;;;;;;;3.60;2.60;;;;;;;20.67;49.70;97061.75;5046332;28;20215;-69
2022/09/03 03:32:37;;;;;;;3.20;2.67;;;;;;;20.66;49.82;97061.97;5054494;28;20425;-69
2022/09/03 03:35:04;;;;;;;4.37;2.30;;;;;;;20.61;50.09;97059.16;5054147;28;20455;-70
2022/09/03 03:37:30;;;;;;;5.43;2.63;;;;;;;20.57;50.15;97061.44;5045763;28;20438;-71
2022/09/03 03:39:55;;;;;;;2.70;2.50;;;;;;;20.57;49.91;97058.78;5046927;28;20445;-71
2022/09/03 03:42:21;;;;;;;5.20;2.70;;;;;;;20.50;49.87;97066.03;5039319;28;20835;-70
2022/09/03 03:44:46;;;;;;;3.90;2.93;;;;;;;20.47;50.38;97061.13;5050573;28;20202;-69
2022/09/03 03:47:12;;;;;;;4.67;2.37;;;;;;;20.46;50.08;97062.16;5041589;28;20191;-69
2022/09/03 03:49:37;;;;;;;5.13;2.60;;;;;;;20.45;50.70;97065.88;5047539;28;20199;-71
2022/09/03 03:52:03;;;;;;;3.43;2.40;;;;;;;20.38;50.50;97073.91;5038846;28;20548;-71
2022/09/03 03:54:29;;;;;;;3.17;2.30;;;;;;;20.39;50.72;97071.03;5042821;28;20217;-69
2022/09/03 03:56:55;;;;;;;2.80;2.60;;;;;;;20.44;50.83;97074.88;5053188;28;20191;-69
2022/09/03 03:59:20;;;;;;;4.30;2.27;;;;;;;20.46;50.37;97071.00;5053389;28;20507;-70
2022/09/03 04:01:47;;;;;;;5.20;2.93;;;;;;;20.50;50.45;97066.03;5050395;28;20179;-70
2022/09/03 04:04:13;;;;;;;6.67;2.67;;;;;;;20.54;50.53;97062.72;5050251;28;20210;-71
2022/09/03 04:06:38;;;;;;;2.50;2.30;;;;;;;20.63;50.53;97065.06;5036494;28;20430;-71
2022/09/03 04:09:04;;;;;;;2.43;2.23;;;;;;;20.68;50.03;97059.91;5036026;28;20184;-70
2022/09/03 04:11:29;;;;;;;6.17;2.37;;;;;;;20.71;50.04;97065.59;5037495;28;20180;-71
2022/09/03 04:13:55;;;;;;;2.13;1.93;;;;;;;20.70;49.70;97068.50;5045085;28;20212;-69
2022/09/03 04:16:23;;;;;;;2.60;2.00;;;;;;;20.68;49.88;97063.38;5046417;28;20287;-70
2022/09/03 04:18:49;;;;;;;4.43;2.30;;;;;;;20.66;49.63;97057.47;5043320;28;20218;-71
2022/09/03 04:21:20;;;;;;;4.17;2.57;;;;;;;20.66;49.77;97062.81;5053799;28;20806;-71
2022/09/03 04:23:47;;;;;;;3.40;2.20;;;;;;;20.62;50.12;97061.63;5045787;28;20916;-71
2022/09/03 04:26:18;;;;;;;2.43;2.30;;;;;;;20.63;50.20;97065.06;5044622;28;20498;-71
2022/09/03 04:28:44;;;;;;;6.53;2.43;;;;;;;20.63;49.79;97057.09;5040544;28;20434;-71
2022/09/03 04:31:11;;;;;;;2.60;2.40;;;;;;;20.56;50.00;97063.31;5046202;28;20827;-70
2022/09/03 04:33:37;;;;;;;3.17;2.40;;;;;;;20.58;50.00;97063.06;5043342;28;20218;-70
2022/09/03 04:36:04;;;;;;;3.13;2.57;;;;;;;20.57;50.30;97064.09;5045184;28;20433;-71
2022/09/03 04:38:31;;;;;;;3.73;3.10;;;;;;;20.59;50.37;97064.72;5040548;28;20188;-70
2022/09/03 04:40:58;;;;;;;2.23;2.03;;;;;;;20.63;50.59;97071.22;5039278;28;21027;-71
2022/09/03 04:43:24;;;;;;;5.37;2.70;;;;;;;20.66;50.49;97072.63;5045487;28;20421;-71
2022/09/03 04:45:50;;;;;;;5.83;2.43;;;;;;;20.69;50.52;97066.88;5045854;28;20461;-70
2022/09/03 04:48:15;;;;;;;2.80;2.60;;;;;;;20.72;49.89;97061.91;5046420;28;20549;-71
2022/09/03 04:50:41;;;;;;;8.50;2.40;;;;;;;20.77;49.66;97058.63;5042517;28;20303;-69
2022/09/03 04:53:06;;;;;;;2.50;2.20;;;;;;;20.74;49.29;97060.88;5041696;28;20704;-71
2022/09/03 04:55:34;;;;;;;3.13;2.40;;;;;;;20.72;49.20;97063.78;5049429;28;20187;-70
2022/09/03 04:57:59;;;;;;;1.90;1.80;;;;;;;20.72;49.20;97072.56;5050697;28;20194;-70
2022/09/03 05:00:25;;;;;;;2.67;2.47;;;;;;;20.63;49.16;97070.41;5052354;28;20831;-70
2022/09/03 05:02:50;;;;;;;3.30;2.50;;;;;;;20.65;49.47;97066.50;5052317;28;20213;-70
2022/09/03 05:05:16;;;;;;;3.83;2.47;;;;;;;20.58;49.51;97067.59;5046596;28;20215;-71
2022/09/03 05:07:42;;;;;;;3.83;2.23;;;;;;;20.60;49.96;97071.66;5051757;28;20190;-71
2022/09/03 05:10:12;;;;;;;2.83;2.30;;;;;;;20.63;49.53;97060.59;5051929;28;20441;-69
2022/09/03 05:12:37;;;;;;;4.53;2.43;;;;;;;20.70;49.57;97060.50;5052040;28;20213;-69
2022/09/03 05:15:04;;;;;;;2.83;2.57;;;;;;;20.74;49.70;97061.69;5049668;28;20444;-70
2022/09/03 05:17:29;;;;;;;2.70;2.50;;;;;;;20.75;49.63;97057.22;5046933;28;20547;-69
2022/09/03 05:19:55;;;;;;;4.27;2.47;;;;;;;20.78;49.38;97064.78;5055840;28;20450;-69
2022/09/03 05:22:20;;;;;;;4.90;2.77;;;;;;;20.75;50.01;97062.53;5058082;28;20189;-69
2022/09/03 05:24:47;;;;;;;3.27;2.97;;;;;;;20.79;50.23;97059.22;5052591;28;20297;-70
2022/09/03 05:27:15;;;;;;;4.30;3.30;;;;;;;20.80;50.10;97057.34;5050987;28;20202;-69
2022/09/03 05:29:44;;;;;;;3.97;2.50;;;;;;;20.58;50.54;97062.28;5049425;28;20886;-68
2022/09/03 05:32:12;;;;;;;2.97;2.67;;;;;;;20.52;50.61;97069.28;5050741;28;21097;-68
2022/09/03 05:34:38;;;;;;;9.93;3.13;;;;;;;20.56;50.70;97065.13;5052150;28;20783;-69
2022/09/03 05:37:04;;;;;;;5.20;2.70;;;;;;;20.58;50.65;97070.25;5050557;28;20429;-69
2022/09/03 05:39:29;;;;;;;6.10;2.77;;;;;;;20.54;50.43;97072.56;5047626;28;20202;-68
2022/09/03 05:41:54;;;;;;;2.50;2.30;;;;;;;20.66;50.42;97059.31;5051812;28;20197;-69
2022/09/03 05:44:22;;;;;;;2.50;2.30;;;;;;;20.67;50.36;97066.28;5051950;28;20567;-69
2022/09/03 05:46:47;;;;;;;4.77;2.70;;;;;;;20.76;50.23;97070.28;5051219;28;20589;-69
2022/09/03 05:49:13;;;;;;;3.90;2.70;;;;;;;20.77;50.14;97077.25;5045687;28;20450;-68
2022/09/03 05:51:38;;;;;;;5.23;2.53;;;;;;;20.76;50.47;97072.16;5051637;28;20179;-71
2022/09/03 05:54:04;;;;;;;4.90;2.77;;;;;;;20.80;50.25;97081.31;5044570;28;20189;-70
2022/09/03 05:56:30;;;;;;;3.40;2.43;;;;;;;20.83;50.31;97080.88;5046143;28;20610;-69
2022/09/03 05:59:00;;;;;;;8.57;2.27;;;;;;;20.84;50.39;97085.19;5031334;28;20214;-68
2022/09/03 06:01:29;;;;;;;3.13;2.47;;;;;;;20.88;50.23;97078.38;5031319;28;20434;-69
2022/09/03 06:03:55;;;;;;;3.80;2.83;;;;;;;20.91;50.32;97083.28;5030758;28;20510;-69
2022/09/03 06:06:24;;;;;;;4.50;2.60;;;;;;;20.94;50.73;97093.47;5032564;28;20834;-71
2022/09/03 06:08:56;;;;;;;10.10;2.80;;;;;;;20.92;51.15;97084.88;5032233;28;20495;-69
2022/09/03 06:11:26;;;;;;;2.73;2.17;;;;;;;20.92;51.27;97087.53;5033723;28;20426;-69
2022/09/03 06:13:56;;;;;;;2.60;2.40;;;;;;;20.92;51.25;97094.72;5035852;28;21002;-69
2022/09/03 06:16:22;;;;;;;3.87;2.90;;;;;;;20.93;51.17;97091.81;5031742;28;20840;-69
2022/09/03 06:18:48;;;;;;;3.63;2.10;;;;;;;20.99;51.19;97092.78;5032079;28;20435;-69
2022/09/03 06:21:13;;;;;;;3.00;2.40;;;;;;;21.04;51.40;97092.16;5035628;28;20511;-70
2022/09/03 06:23:39;;;;;;;5.53;3.43;;;;;;;21.07;51.20;97091.69;5032876;28;20183;-70
2022/09/03 06:26:10;;;;;;;13.10;2.80;;;;;;;21.10;51.56;97099.22;5034647;28;20553;-70
2022/09/03 06:28:37;;;;;;;9.83;3.60;;;;;;;21.07;51.34;97091.69;5032634;28;20207;-71
2022/09/03 06:31:04;;;;;;;7.17;6.47;;;;;;;21.02;52.02;97095.84;5038594;28;20862;-69
2022/09/03 06:33:33;;;;;;;32.73;19.70;;;;;;;21.14;51.77;97089.78;5036172;28;20945;-69
2022/09/03 06:36:00;;;;;;;10.07;7.33;;;;;;;21.19;51.91;97095.22;5034021;28;20433;-70
2022/09/03 06:38:27;;;;;;;7.93;6.90;;;;;;;21.26;51.68;97095.97;5032658;28;20421;-69
2022/09/03 06:40:55;;;;;;;6.77;6.00;;;;;;;21.30;51.87;97102.47;5032405;28;20474;-69
2022/09/03 06:43:21;;;;;;;5.10;4.60;;;;;;;21.31;52.32;97096.09;5036113;28;20422;-71
2022/09/03 06:45:57;;;;;;;10.00;7.30;;;;;;;21.35;52.39;97099.16;5040800;28;20584;-70
2022/09/03 06:48:23;;;;;;;8.33;7.47;;;;;;;21.38;52.47;97103.22;5042638;28;20786;-70
2022/09/03 06:51:05;;;;;;;11.80;8.27;;;;;;;21.36;52.70;97102.63;5041824;28;20454;-70
2022/09/03 06:53:33;;;;;;;10.70;9.07;;;;;;;21.41;52.93;97102.78;5025817;28;20190;-69
2022/09/03 06:56:00;;;;;;;14.80;11.47;;;;;;;21.40;53.04;97099.28;5039613;28;20423;-70
2022/09/03 06:58:31;;;;;;;19.07;15.97;;;;;;;21.45;53.18;97088.78;5012548;28;20425;-69
2022/09/03 07:01:06;;;;;;;11.30;10.10;;;;;;;21.51;53.11;97102.22;5027443;28;20445;-70
2022/09/03 07:03:32;;;;;;;8.60;6.70;;;;;;;21.53;53.06;97098.31;5038196;28;20440;-70
2022/09/03 07:06:03;;;;;;;8.70;7.77;;;;;;;21.53;53.65;97100.16;5037064;28;20537;-69
2022/09/03 07:08:30;;;;;;;34.10;30.27;;;;;;;21.55;53.49;97092.75;5036744;28;20968;-69
2022/09/03 07:10:56;;;;;;;20.30;17.67;;;;;;;21.57;53.83;97093.34;5032667;28;20870;-70
2022/09/03 07:13:21;;;;;;;12.17;9.73;;;;;;;21.56;53.99;97099.72;5031405;28;20422;-69
2022/09/03 07:15:47;;;;;;;12.90;11.60;;;;;;;21.59;54.03;97100.09;5034941;28;20187;-70
2022/09/03 07:18:13;;;;;;;7.20;3.87;;;;;;;21.59;54.20;97107.25;5018229;28;20187;-70
2022/09/03 07:20:38;;;;;;;5.07;4.63;;;;;;;21.60;54.27;97101.72;5035052;28;20298;-71
2022/09/03 07:23:03;;;;;;;4.73;4.13;;;;;;;21.64;54.03;97107.41;5034345;28;20202;-70
2022/09/03 07:25:30;;;;;;;6.03;3.80;;;;;;;21.68;54.32;97099.78;5036189;28;20700;-69
2022/09/03 07:27:55;;;;;;;4.80;4.10;;;;;;;21.72;54.26;97098.28;5043199;28;20676;-69
2022/09/03 07:30:21;;;;;;;6.30;4.53;;;;;;;21.73;54.61;97099.91;5037724;28;20540;-71
2022/09/03 07:32:50;;;;;;;4.63;4.00;;;;;;;21.77;54.12;97095.75;5034374;28;20186;-71
2022/09/03 07:35:17;;;;;;;5.90;4.10;;;;;;;21.85;54.25;97099.97;5035964;28;20274;-71
2022/09/03 07:37:42;;;;;;;4.87;4.00;;;;;;;21.91;54.50;97105.22;5040557;28;20442;-70
2022/09/03 07:40:09;;;;;;;4.40;3.90;;;;;;;21.94;54.29;97102.06;5036673;28;20454;-70
2022/09/03 07:42:37;;;;;;;4.57;4.17;;;;;;;22.03;54.22;97107.09;5028845;28;20261;-70
2022/09/03 07:45:08;;;;;;;8.37;3.70;;;;;;;22.09;54.22;97109.66;5045696;28;20487;-70
2022/09/03 07:47:34;;;;;;;6.60;3.90;;;;;;;22.17;54.02;97105.84;5038318;28;20422;-71
2022/09/03 07:50:00;;;;;;;5.20;3.80;;;;;;;22.16;53.93;97114.91;5035884;28;21211;-70
2022/09/03 07:52:25;;;;;;;4.97;3.60;;;;;;;22.18;53.65;97112.78;5001591;28;20444;-69
2022/09/03 07:54:51;;;;;;;6.63;5.93;;;;;;;22.24;53.66;97111.09;5023211;28;20706;-70
2022/09/03 07:57:16;;;;;;;11.43;4.10;;;;;;;22.29;54.16;97113.06;5033687;28;20663;-69
2022/09/03 07:59:42;;;;;;;5.87;4.10;;;;;;;22.35;53.91;97117.47;5035122;28;20212;-70
2022/09/03 08:02:07;;;;;;;6.23;3.80;;;;;;;22.42;53.64;97114.72;5037049;28;20303;-69
2022/09/03 08:04:34;;;;;;;3.60;3.30;;;;;;;22.49;52.99;97118.09;5043440;28;20207;-70
2022/09/03 08:07:00;;;;;;;5.10;3.90;;;;;;;22.54;53.20;97123.53;5036083;28;20581;-70
2022/09/03 08:09:26;;;;;;;4.30;3.90;;;;;;;22.62;53.12;97125.06;5048340;28;20448;-69
2022/09/03 08:11:51;;;;;;;4.73;3.63;;;;;;;22.72;53.03;97127.16;5038483;28;20184;-70
2022/09/03 08:14:17;;;;;;;4.70;3.87;;;;;;;22.77;52.88;97130.75;5048752;28;20211;-70
2022/09/03 08:16:46;;;;;;;4.07;3.30;;;;;;;22.84;52.47;97120.75;5039784;28;20682;-71
2022/09/03 08:19:12;;;;;;;5.27;3.77;;;;;;;22.98;52.39;97125.84;5041538;28;20426;-69
2022/09/03 08:21:40;;;;;;;5.57;3.20;;;;;;;23.33;52.24;97130.34;5047377;28;20460;-69
2022/09/03 08:24:06;;;;;;;7.90;3.77;;;;;;;23.68;51.73;97129.44;5042241;28;20417;-70
2022/09/03 08:26:36;;;;;;;6.00;4.00;;;;;;;23.92;50.61;97124.00;5041547;28;20948;-69
2022/09/03 08:29:03;;;;;;;3.47;3.27;;;;;;;24.10;50.27;97117.66;5038424;28;20191;-71
2022/09/03 08:31:29;;;;;;;4.73;3.20;;;;;;;24.27;49.81;97125.69;5048968;28;20484;-70
2022/09/03 08:33:56;;;;;;;12.37;9.67;;;;;;;24.52;49.47;97122.59;5046000;28;20439;-71
2022/09/03 08:36:28;;;;;;;6.60;5.60;;;;;;;25.00;49.22;97120.38;5047964;28;20445;-69
2022/09/03 08:38:55;;;;;;;6.43;3.70;;;;;;;25.40;48.31;97121.13;5039876;28;20583;-70
2022/09/03 08:41:29;;;;;;;4.60;4.20;;;;;;;25.85;47.38;97111.16;5039943;28;20431;-71
2022/09/03 08:44:18;;;;;;;3.60;3.30;;;;;;;26.39;46.41;97122.16;5041917;28;20524;-71
2022/09/03 08:46:47;;;;;;;3.90;3.50;;;;;;;26.84;45.01;97120.88;5038123;28;20456;-71
2022/09/03 08:49:15;;;;;;;6.40;3.30;;;;;;;26.93;43.72;97129.25;5044833;28;20484;-72
2022/09/03 08:51:41;;;;;;;3.40;3.10;;;;;;;26.91;43.28;97136.78;5040323;28;20431;-70
2022/09/03 08:54:09;;;;;;;8.70;7.00;;;;;;;26.81;42.68;97132.97;5034314;28;20795;-70
2022/09/03 08:56:38;;;;;;;3.30;3.00;;;;;;;26.70;42.63;97133.94;5032464;28;20426;-70
2022/09/03 08:59:04;;;;;;;5.10;3.13;;;;;;;26.61;43.22;97130.09;5039054;28;20435;-71
2022/09/03 09:01:48;;;;;;;3.00;2.77;;;;;;;26.50;43.19;97138.06;5040558;28;20422;-71
2022/09/03 09:04:43;;;;;;;5.37;4.87;;;;;;;26.34;43.44;97137.16;5041374;28;20191;-72
2022/09/03 09:07:37;;;;;;;2.73;2.53;;;;;;;26.17;43.89;97144.50;5048990;28;20411;-72
2022/09/03 09:10:27;;;;;;;3.30;3.00;;;;;;;26.04;43.83;97143.03;5026776;28;21147;-73
2022/09/03 09:13:31;;;;;;;5.83;2.90;;;;;;;25.87;44.39;97157.34;5045574;28;20424;-71
2022/09/03 09:16:33;;;;;;;2.63;2.43;;;;;;;25.72;44.62;97159.88;5031623;28;20439;-74
2022/09/03 09:19:19;;;;;;;4.50;4.10;;;;;;;25.54;45.49;97153.78;5044504;28;20417;-73
2022/09/03 09:21:52;;;;;;;3.80;3.50;;;;;;;25.51;45.53;97154.28;5039098;28;21118;-72
2022/09/03 09:24:25;;;;;;;4.70;3.70;;;;;;;25.58;45.36;97157.56;5046631;28;20438;-72
2022/09/03 09:27:08;;;;;;;3.27;2.87;;;;;;;25.63;45.18;97156.00;5040749;28;20476;-74
2022/09/03 09:29:36;;;;;;;6.10;3.83;;;;;;;25.77;44.99;97146.50;5037347;28;20465;-74
2022/09/03 09:32:03;;;;;;;3.40;3.10;;;;;;;25.95;45.39;97149.94;5046418;28;20440;-72
2022/09/03 09:34:34;;;;;;;5.97;2.90;;;;;;;26.45;44.59;97140.75;5045550;28;20584;-73
2022/09/03 09:37:03;;;;;;;3.70;3.40;;;;;;;27.01;43.93;97149.47;5042962;28;20450;-74
2022/09/03 09:39:29;;;;;;;7.13;3.23;;;;;;;27.17;43.31;97144.97;5040814;28;20479;-71
2022/09/03 09:42:08;;;;;;;3.80;2.80;;;;;;;27.58;41.98;97137.91;5045636;28;20512;-71
2022/09/03 09:44:35;;;;;;;3.27;3.07;;;;;;;28.12;41.21;97135.06;5042265;28;20483;-72
2022/09/03 09:47:12;;;;;;;3.43;3.13;;;;;;;28.46;40.72;97129.19;5036545;28;20439;-72
2022/09/03 09:49:57;;;;;;;3.00;2.53;;;;;;;28.59;39.49;97131.31;5038778;28;20436;-71
2022/09/03 09:52:28;;;;;;;2.73;2.53;;;;;;;28.44;39.68;97128.63;5039388;28;20429;-71
2022/09/03 09:55:07;;;;;;;3.00;2.50;;;;;;;28.25;39.65;97131.84;5046005;28;20422;-71
2022/09/03 09:57:33;;;;;;;4.60;3.00;;;;;;;28.03;39.64;97140.97;5047326;28;20422;-71
2022/09/03 10:00:12;;;;;;;3.50;3.20;;;;;;;27.83;40.70;97140.94;5047415;28;20783;-71
2022/09/03 10:02:41;;;;;;;9.10;3.00;;;;;;;27.61;40.35;97149.22;5045738;28;20193;-74
2022/09/03 10:05:23;;;;;;;3.50;3.20;;;;;;;27.41;40.43;97151.53;5048426;28;20485;-72
2022/09/03 10:08:07;;;;;;;4.83;2.80;;;;;;;27.20;40.83;97156.00;5045151;28;20437;-70
2022/09/03 10:10:47;;;;;;;3.20;2.90;;;;;;;27.06;41.34;97155.69;5037633;28;20503;-71
2022/09/03 10:13:48;;;;;;;4.73;2.90;;;;;;;26.97;41.59;97157.22;5024292;28;20441;-71
2022/09/03 10:16:27;;;;;;;4.10;3.13;;;;;;;26.76;41.14;97151.69;5013210;28;20496;-71
2022/09/03 10:19:01;;;;;;;12.80;3.13;;;;;;;26.64;41.58;97151.06;5040488;28;20424;-71
2022/09/03 10:21:42;;;;;;;3.30;3.00;;;;;;;26.55;41.93;97149.94;5048110;28;20509;-72
2022/09/03 10:24:27;;;;;;;5.60;3.17;;;;;;;26.48;41.62;97150.94;5044648;28;20488;-72
2022/09/03 10:26:52;;;;;;;10.33;3.70;;;;;;;26.45;41.13;97143.44;5039920;28;20897;-71
2022/09/03 10:29:20;;;;;;;4.33;4.03;;;;;;;26.58;41.82;97149.44;5038695;28;20446;-71
2022/09/03 10:32:24;;;;;;;6.70;3.27;;;;;;;26.94;41.32;97144.31;5038831;28;20653;-71
2022/09/03 10:35:15;;;;;;;3.90;2.70;;;;;;;27.47;40.28;97143.53;5044259;28;20440;-71
2022/09/03 10:37:54;;;;;;;6.77;3.20;;;;;;;27.70;39.35;97151.16;5043098;28;20433;-71
2022/09/03 10:40:34;;;;;;;9.67;3.10;;;;;;;27.97;39.34;97146.63;5032976;28;21966;-71
2022/09/03 10:43:08;;;;;;;3.73;3.20;;;;;;;28.24;38.08;97149.09;5038776;28;20422;-72
2022/09/03 10:45:45;;;;;;;6.23;3.20;;;;;;;28.40;38.27;97149.94;5043038;28;21906;-72
2022/09/03 10:48:29;;;;;;;4.50;2.90;;;;;;;28.49;37.57;97153.69;5040009;28;20429;-72
2022/09/03 10:51:03;;;;;;;4.03;2.60;;;;;;;28.56;37.40;97150.72;5037760;28;20450;-71
2022/09/03 10:53:48;;;;;;;6.53;3.23;;;;;;;28.52;36.69;97136.16;5033069;28;20458;-71
2022/09/03 10:56:36;;;;;;;6.80;3.10;;;;;;;28.43;37.99;97132.41;5034271;28;20414;-71
2022/09/03 10:59:16;;;;;;;4.50;2.97;;;;;;;28.40;37.86;97135.63;5034246;28;20914;-71
2022/09/03 11:01:54;;;;;;;2.97;2.70;;;;;;;28.20;38.45;97129.19;5033894;28;20596;-71
2022/09/03 11:04:43;;;;;;;4.40;3.40;;;;;;;27.96;38.82;97134.22;5045984;28;20425;-71
2022/09/03 11:07:12;;;;;;;6.00;3.30;;;;;;;27.85;38.15;97128.03;5039462;28;20824;-70
2022/09/03 11:09:40;;;;;;;4.60;3.53;;;;;;;27.61;39.37;97133.06;5048676;28;20838;-73
2022/09/03 11:12:20;;;;;;;7.60;3.10;;;;;;;27.45;39.70;97130.31;5039745;28;20509;-73
2022/09/03 11:14:55;;;;;;;3.30;3.00;;;;;;;27.38;39.44;97125.16;5039570;28;20916;-72
2022/09/03 11:17:30;;;;;;;4.47;3.10;;;;;;;27.27;40.53;97123.50;5040431;28;20426;-71
2022/09/03 11:20:28;;;;;;;7.77;3.70;;;;;;;27.02;40.69;97122.31;5039605;28;20963;-70
2022/09/03 11:22:57;;;;;;;4.00;3.60;;;;;;;26.76;41.08;97116.75;5039968;28;20943;-72
2022/09/03 11:25:28;;;;;;;4.90;3.20;;;;;;;26.65;41.05;97115.88;5043492;28;20469;-72
2022/09/03 11:28:02;;;;;;;3.27;2.90;;;;;;;26.57;41.56;97115.56;5045244;28;20517;-70
2022/09/03 11:31:05;;;;;;;5.57;3.30;;;;;;;26.61;41.87;97117.47;5036210;28;20442;-73
2022/09/03 11:33:32;;;;;;;10.60;3.43;;;;;;;26.56;41.68;97119.31;5035366;28;20412;-71
2022/09/03 11:35:59;;;;;;;9.97;3.37;;;;;;;26.47;42.02;97109.03;5041588;28;20789;-72
2022/09/03 11:38:29;;;;;;;5.20;3.60;;;;;;;26.42;42.11;97105.50;5057353;28;20429;-72
2022/09/03 11:40:58;;;;;;;4.07;3.73;;;;;;;26.29;42.63;97112.13;5042829;28;20445;-73
2022/09/03 11:43:23;;;;;;;10.37;5.13;;;;;;;26.19;43.17;97104.78;5050918;28;20425;-71
2022/09/03 11:46:01;;;;;;;5.77;3.87;;;;;;;26.03;43.26;97101.94;5042620;28;20473;-72
2022/09/03 11:48:35;;;;;;;6.93;3.57;;;;;;;25.97;43.44;97107.50;5055627;28;20227;-70
2022/09/03 11:51:01;;;;;;;4.43;3.17;;;;;;;25.92;43.58;97116.31;5041886;28;20949;-72